createdAt,value
2022-09-28T00:01:01.111Z,10.52
2022-09-28T00:03:29.193Z,10.51
2022-09-28T00:06:03.319Z,10.56
2022-09-28T00:08:32.736Z,10.54
2022-09-28T00:11:00.482Z,10.53
2022-09-28T00:13:29.686Z,10.51
2022-09-28T00:16:02.590Z,10.52
2022-09-28T00:18:30.855Z,10.50
2022-09-28T00:21:04.302Z,10.53
2022-09-28T00:23:33.870Z,10.51
2022-09-28T00:26:05.710Z,10.50
2022-09-28T00:28:33.815Z,10.45
2022-09-28T00:31:01.758Z,10.47
2022-09-28T00:33:29.722Z,10.47
2022-09-28T00:35:58.119Z,10.46
2022-09-28T00:38:28.819Z,10.46
2022-09-28T00:40:59.560Z,10.45
2022-09-28T00:43:28.055Z,10.43
2022-09-28T00:46:00.335Z,10.44
2022-09-28T00:48:33.465Z,10.42
2022-09-28T00:51:03.957Z,10.16
2022-09-28T00:53:35.763Z,10.38
2022-09-28T00:56:09.181Z,10.39
2022-09-28T00:58:40.922Z,10.39
2022-09-28T01:01:09.017Z,10.38
2022-09-28T01:03:38.691Z,10.38
2022-09-28T01:06:08.656Z,10.36
2022-09-28T01:08:38.018Z,10.34
2022-09-28T01:11:07.230Z,10.33
2022-09-28T01:13:35.246Z,10.29
2022-09-28T01:16:11.577Z,10.31
2022-09-28T01:18:48.633Z,10.28
2022-09-28T01:21:20.073Z,10.26
2022-09-28T01:24:29.890Z,10.22
2022-09-28T01:27:07.090Z,10.22
2022-09-28T01:29:44.607Z,10.21
2022-09-28T01:32:19.803Z,10.21
2022-09-28T01:34:57.355Z,10.19
2022-09-28T01:37:32.076Z,10.17
2022-09-28T01:40:03.058Z,10.15
2022-09-28T01:42:35.482Z,10.15
2022-09-28T01:45:10.524Z,10.13
2022-09-28T01:47:41.000Z,10.14
2022-09-28T01:50:13.924Z,10.12
2022-09-28T01:52:50.267Z,10.11
2022-09-28T01:55:25.091Z,10.11
2022-09-28T01:58:02.053Z,10.12
2022-09-28T02:00:30.324Z,10.08
2022-09-28T02:03:04.214Z,10.09
2022-09-28T02:05:50.295Z,10.08
2022-09-28T02:08:25.427Z,10.07
2022-09-28T02:10:58.959Z,10.06
2022-09-28T02:13:32.938Z,10.07
2022-09-28T02:16:06.621Z,10.06
2022-09-28T02:18:35.194Z,10.05
2022-09-28T02:21:10.007Z,10.07
2022-09-28T02:23:40.715Z,10.04
2022-09-28T02:26:13.247Z,10.05
2022-09-28T02:28:42.839Z,10.04
2022-09-28T02:31:10.791Z,10.03
2022-09-28T02:33:43.816Z,10.04
2022-09-28T02:36:12.508Z,10.02
2022-09-28T02:38:40.562Z,10.01
2022-09-28T02:41:19.763Z,10.04
2022-09-28T02:43:58.924Z,10.02
2022-09-28T02:46:33.342Z,10.02
2022-09-28T02:49:23.322Z,9.99
2022-09-28T02:52:14.348Z,9.99
2022-09-28T02:55:05.497Z,10.00
2022-09-28T02:57:43.920Z,9.99
2022-09-28T03:00:19.022Z,9.99
2022-09-28T03:03:00.622Z,9.99
2022-09-28T03:05:37.164Z,9.99
2022-09-28T03:08:12.171Z,9.99
2022-09-28T03:10:44.311Z,9.98
2022-09-28T03:13:14.821Z,9.97
2022-09-28T03:15:48.600Z,10.00
2022-09-28T03:18:18.018Z,9.97
2022-09-28T03:20:45.780Z,9.98
2022-09-28T03:23:24.212Z,9.98
2022-09-28T03:25:52.944Z,9.99
2022-09-28T03:28:21.237Z,10.00
2022-09-28T03:30:51.081Z,10.01
2022-09-28T03:33:19.753Z,9.99
2022-09-28T03:35:48.939Z,10.01
2022-09-28T03:38:18.205Z,10.01
2022-09-28T03:40:53.862Z,10.03
2022-09-28T03:43:21.954Z,10.00
2022-09-28T03:45:55.847Z,10.02
2022-09-28T03:48:28.804Z,10.01
2022-09-28T03:51:00.639Z,10.00
2022-09-28T03:53:29.580Z,9.99
2022-09-28T03:56:03.684Z,10.00
2022-09-28T03:58:32.613Z,9.99
2022-09-28T04:01:05.186Z,10.01
2022-09-28T04:03:33.492Z,9.96
2022-09-28T04:06:02.107Z,9.99
2022-09-28T04:08:30.125Z,9.98
2022-09-28T04:10:58.768Z,9.99
2022-09-28T04:13:26.935Z,9.97
2022-09-28T04:15:56.949Z,9.99
2022-09-28T04:18:26.328Z,9.98
2022-09-28T04:21:17.353Z,9.96
2022-09-28T04:23:48.797Z,9.97
2022-09-28T04:26:18.392Z,9.97
2022-09-28T04:29:06.843Z,9.96
2022-09-28T04:31:39.949Z,9.96
2022-09-28T04:34:09.405Z,9.94
2022-09-28T04:36:37.311Z,9.95
2022-09-28T04:39:05.327Z,9.96
2022-09-28T04:41:34.027Z,9.95
2022-09-28T04:44:02.502Z,9.96
2022-09-28T04:46:30.559Z,9.96
2022-09-28T04:49:18.813Z,9.96
2022-09-28T04:51:54.558Z,9.94
2022-09-28T04:54:22.353Z,9.95
2022-09-28T04:56:51.178Z,9.96
2022-09-28T04:59:19.111Z,9.96
2022-09-28T05:01:47.529Z,9.96
2022-09-28T05:04:53.320Z,9.95
2022-09-28T05:07:47.189Z,9.95
2022-09-28T05:10:15.256Z,9.97
2022-09-28T05:12:43.154Z,9.97
2022-09-28T05:15:12.657Z,9.98
2022-09-28T05:17:40.490Z,9.97
2022-09-28T05:20:22.435Z,9.98
2022-09-28T05:22:50.366Z,9.97
2022-09-28T05:25:18.934Z,9.97
2022-09-28T05:27:56.835Z,9.97
2022-09-28T05:30:38.476Z,9.96
2022-09-28T05:33:30.267Z,9.97
2022-09-28T05:36:12.059Z,9.96
2022-09-28T05:38:39.971Z,9.95
2022-09-28T05:41:07.924Z,9.94
2022-09-28T05:43:36.360Z,9.94
2022-09-28T05:46:06.108Z,9.92
2022-09-28T05:48:36.410Z,9.93
2022-09-28T05:51:04.417Z,9.93
2022-09-28T05:53:33.628Z,9.93
2022-09-28T05:56:01.859Z,9.92
2022-09-28T05:58:32.669Z,9.91
2022-09-28T06:01:00.760Z,9.91
2022-09-28T06:03:28.697Z,9.90
2022-09-28T06:05:56.600Z,9.91
2022-09-28T06:08:25.326Z,9.89
2022-09-28T06:11:03.139Z,9.90
2022-09-28T06:13:32.200Z,9.89
2022-09-28T06:15:59.963Z,9.88
2022-09-28T06:18:28.024Z,9.90
2022-09-28T06:21:25.150Z,9.87
2022-09-28T06:23:53.014Z,9.88
2022-09-28T06:26:23.050Z,9.89
2022-09-28T06:28:51.072Z,9.88
2022-09-28T06:31:19.864Z,9.88
2022-09-28T06:33:50.785Z,9.88
2022-09-28T06:36:20.878Z,9.85
2022-09-28T06:38:50.515Z,9.87
2022-09-28T06:41:18.660Z,9.87
2022-09-28T06:43:48.821Z,9.90
2022-09-28T06:46:35.666Z,9.87
2022-09-28T06:49:16.120Z,9.89
2022-09-28T06:52:06.103Z,9.89
2022-09-28T06:54:56.725Z,9.89
2022-09-28T06:57:32.831Z,9.92
2022-09-28T07:00:05.267Z,9.95
2022-09-28T07:02:33.302Z,9.94
2022-09-28T07:05:14.674Z,9.98
2022-09-28T07:07:56.404Z,9.96
2022-09-28T07:10:50.287Z,9.95
2022-09-28T07:13:49.151Z,9.98
2022-09-28T07:16:26.554Z,10.00
2022-09-28T07:18:56.855Z,9.98
2022-09-28T07:21:29.654Z,10.02
2022-09-28T07:23:59.996Z,10.02
2022-09-28T07:26:46.534Z,10.02
2022-09-28T07:29:30.996Z,10.02
2022-09-28T07:32:20.293Z,10.05
2022-09-28T07:35:15.445Z,10.04
2022-09-28T07:37:48.475Z,10.05
2022-09-28T07:40:33.958Z,10.06
2022-09-28T07:43:05.603Z,10.06
2022-09-28T07:45:36.159Z,10.08
2022-09-28T07:48:06.020Z,10.11
2022-09-28T07:51:06.576Z,10.11
2022-09-28T07:53:48.085Z,10.14
2022-09-28T07:56:28.701Z,10.18
2022-09-28T07:59:20.268Z,10.21
2022-09-28T08:02:07.076Z,10.25
2022-09-28T08:04:36.998Z,10.31
2022-09-28T08:07:10.399Z,10.35
2022-09-28T08:09:38.510Z,10.37
2022-09-28T08:12:32.045Z,10.41
2022-09-28T08:15:20.231Z,10.46
2022-09-28T08:18:08.629Z,10.49
2022-09-28T08:20:55.142Z,10.56
2022-09-28T08:23:23.598Z,10.55
2022-09-28T08:25:53.867Z,10.60
2022-09-28T08:28:23.955Z,10.63
2022-09-28T08:30:55.292Z,10.62
2022-09-28T08:33:32.586Z,10.63
2022-09-28T08:36:36.873Z,10.62
2022-09-28T08:39:23.461Z,10.62
2022-09-28T08:42:31.755Z,10.66
2022-09-28T08:45:38.300Z,10.58
2022-09-28T08:48:56.956Z,10.64
2022-09-28T08:51:56.071Z,10.62
2022-09-28T08:54:40.283Z,10.64
2022-09-28T08:57:18.783Z,10.63
2022-09-28T08:59:52.669Z,10.67
2022-09-28T09:02:33.378Z,10.65
2022-09-28T09:05:19.066Z,10.66
2022-09-28T09:08:25.868Z,10.67
2022-09-28T09:11:01.350Z,10.68
2022-09-28T09:13:46.730Z,10.71
2022-09-28T09:16:31.634Z,10.71
2022-09-28T09:19:35.538Z,10.70
2022-09-28T09:22:27.308Z,10.71
2022-09-28T09:25:05.055Z,10.74
2022-09-28T09:27:48.210Z,10.76
2022-09-28T09:30:20.422Z,10.76
2022-09-28T09:33:07.872Z,10.77
2022-09-28T09:36:02.769Z,10.78
2022-09-28T09:38:59.259Z,10.81
2022-09-28T09:42:01.422Z,10.83
2022-09-28T09:44:52.717Z,10.87
2022-09-28T09:47:53.329Z,10.89
2022-09-28T09:50:30.087Z,10.95
2022-09-28T09:53:03.531Z,10.98
2022-09-28T09:55:35.187Z,10.99
2022-09-28T09:58:30.551Z,11.05
2022-09-28T10:01:18.541Z,11.07
2022-09-28T10:04:19.856Z,11.10
2022-09-28T10:06:50.638Z,11.12
2022-09-28T10:09:24.932Z,11.16
2022-09-28T10:11:53.899Z,11.16
2022-09-28T10:14:24.792Z,11.21
2022-09-28T10:17:06.089Z,11.21
2022-09-28T10:19:52.568Z,11.21
2022-09-28T10:22:43.475Z,11.26
2022-09-28T10:25:16.381Z,11.30
2022-09-28T10:27:46.377Z,11.33
2022-09-28T10:30:23.219Z,11.39
2022-09-28T10:32:53.628Z,11.42
2022-09-28T10:35:25.061Z,11.47
2022-09-28T10:38:04.400Z,11.50
2022-09-28T10:40:47.569Z,11.55
2022-09-28T10:43:25.028Z,11.61
2022-09-28T10:46:07.383Z,11.66
2022-09-28T10:48:49.580Z,11.70
2022-09-28T10:51:17.599Z,11.73
2022-09-28T10:54:00.740Z,11.80
2022-09-28T10:56:50.431Z,11.84
2022-09-28T10:59:39.448Z,11.93
2022-09-28T11:02:36.179Z,11.95
2022-09-28T11:05:27.799Z,11.99
2022-09-28T11:08:00.672Z,12.04
2022-09-28T11:10:35.639Z,12.06
2022-09-28T11:13:15.381Z,12.10
2022-09-28T11:15:50.195Z,12.13
2022-09-28T11:18:32.531Z,12.19
2022-09-28T11:21:15.989Z,12.21
2022-09-28T11:24:08.537Z,12.25
2022-09-28T11:26:43.906Z,12.27
2022-09-28T11:29:27.829Z,12.35
2022-09-28T11:32:16.080Z,12.36
2022-09-28T11:35:24.597Z,12.43
2022-09-28T11:38:23.480Z,12.48
2022-09-28T11:41:37.537Z,12.52
2022-09-28T11:44:22.395Z,12.57
2022-09-28T11:47:13.089Z,12.60
2022-09-28T11:49:46.410Z,12.63
2022-09-28T11:52:23.549Z,12.67
2022-09-28T11:54:56.005Z,12.68
2022-09-28T11:57:29.575Z,12.67
2022-09-28T12:00:01.590Z,12.70
2022-09-28T12:02:36.931Z,12.71
2022-09-28T12:05:21.025Z,12.73
2022-09-28T12:07:55.512Z,12.73
2022-09-28T12:10:48.111Z,12.72
2022-09-28T12:13:22.760Z,12.72
2022-09-28T12:18:47.743Z,12.45
2022-09-28T12:21:33.019Z,12.71
2022-09-28T12:24:08.643Z,12.75
2022-09-28T12:26:43.336Z,12.79
2022-09-28T12:29:15.189Z,12.85
2022-09-28T12:31:57.984Z,12.88
2022-09-28T12:34:26.308Z,12.88
2022-09-28T12:37:09.335Z,13.00
2022-09-28T12:39:58.410Z,12.74
2022-09-28T12:42:44.088Z,13.05
2022-09-28T12:45:38.749Z,13.10
2022-09-28T12:48:29.280Z,13.14
2022-09-28T12:51:09.758Z,13.17
2022-09-28T12:53:59.204Z,13.19
2022-09-28T12:56:35.781Z,13.21
2022-09-28T12:59:16.574Z,13.24
2022-09-28T13:02:02.456Z,13.24
2022-09-28T13:04:55.010Z,13.22
2022-09-28T13:07:29.165Z,13.20
2022-09-28T13:10:11.064Z,13.22
2022-09-28T13:12:54.628Z,13.21
2022-09-28T13:15:35.695Z,13.19
2022-09-28T13:18:12.251Z,13.18
2022-09-28T13:20:58.948Z,13.17
2022-09-28T13:23:32.073Z,13.14
2022-09-28T13:26:09.796Z,13.14
2022-09-28T13:28:40.885Z,13.11
2022-09-28T13:31:10.439Z,13.11
2022-09-28T13:33:41.148Z,13.11
2022-09-28T13:36:47.185Z,13.12
2022-09-28T13:39:39.350Z,13.12
2022-09-28T13:42:10.468Z,13.17
2022-09-28T13:45:15.719Z,13.19
2022-09-28T13:47:56.348Z,13.28
2022-09-28T13:50:34.306Z,13.34
2022-09-28T13:53:12.877Z,13.39
2022-09-28T13:55:54.931Z,13.47
2022-09-28T13:58:28.503Z,13.52
2022-09-28T14:01:04.364Z,13.60
2022-09-28T14:03:53.731Z,13.67
2022-09-28T14:06:27.545Z,13.73
2022-09-28T14:09:40.900Z,13.79
2022-09-28T14:12:47.304Z,13.80
2022-09-28T14:15:41.675Z,13.85
2022-09-28T14:18:24.537Z,13.89
2022-09-28T14:21:05.173Z,13.91
2022-09-28T14:24:00.069Z,13.97
2022-09-28T14:27:13.360Z,13.97
2022-09-28T14:29:42.541Z,13.98
2022-09-28T14:32:24.454Z,14.08
2022-09-28T14:35:04.530Z,14.07
2022-09-28T14:37:52.983Z,14.08
2022-09-28T14:40:40.608Z,14.12
2022-09-28T14:43:26.171Z,14.15
2022-09-28T14:46:33.195Z,14.17
2022-09-28T14:49:04.506Z,14.17
2022-09-28T14:52:04.212Z,14.17
2022-09-28T14:54:46.317Z,14.19
2022-09-28T14:57:19.367Z,14.18
2022-09-28T14:59:48.132Z,14.18
2022-09-28T15:02:21.527Z,14.19
2022-09-28T15:04:53.498Z,14.20
2022-09-28T15:07:25.520Z,14.17
2022-09-28T15:09:55.029Z,14.13
2022-09-28T15:12:27.493Z,14.16
2022-09-28T15:14:58.376Z,14.12
2022-09-28T15:17:29.721Z,14.14
2022-09-28T15:21:00.130Z,14.12
2022-09-28T15:24:03.508Z,14.07
2022-09-28T15:26:54.354Z,14.06
2022-09-28T15:29:26.307Z,14.02
2022-09-28T15:31:54.815Z,14.00
2022-09-28T15:34:49.371Z,14.02
2022-09-28T15:37:22.021Z,13.95
2022-09-28T15:39:51.526Z,13.92
2022-09-28T15:42:21.178Z,13.93
2022-09-28T15:45:04.414Z,13.90
2022-09-28T15:47:32.959Z,13.82
2022-09-28T15:50:02.783Z,13.80
2022-09-28T15:52:40.666Z,13.75
2022-09-28T15:55:21.827Z,13.68
2022-09-28T15:57:51.940Z,13.57
2022-09-28T16:00:28.798Z,13.52
2022-09-28T16:03:03.764Z,13.41
2022-09-28T16:05:35.806Z,13.32
2022-09-28T16:08:05.990Z,13.21
2022-09-28T16:10:35.943Z,13.14
2022-09-28T16:13:17.145Z,13.07
2022-09-28T16:15:45.720Z,12.95
2022-09-28T16:18:20.527Z,12.91
2022-09-28T16:20:50.997Z,12.81
2022-09-28T16:23:24.086Z,12.71
2022-09-28T16:25:55.624Z,12.66
2022-09-28T16:28:51.691Z,12.55
2022-09-28T16:31:37.839Z,12.48
2022-09-28T16:34:17.535Z,12.44
2022-09-28T16:36:47.449Z,12.37
2022-09-28T16:39:16.751Z,12.32
2022-09-28T16:41:47.853Z,12.28
2022-09-28T16:44:23.339Z,12.23
2022-09-28T16:46:55.159Z,12.16
2022-09-28T16:49:25.421Z,12.10
2022-09-28T16:51:53.333Z,12.05
2022-09-28T16:54:40.587Z,12.03
2022-09-28T16:57:12.278Z,11.97
2022-09-28T16:59:41.515Z,11.94
2022-09-28T17:02:42.213Z,11.92
2022-09-28T17:05:07.423Z,11.84
2022-09-28T17:07:35.568Z,11.79
2022-09-28T17:10:03.551Z,11.77
2022-09-28T17:12:31.356Z,11.74
2022-09-28T17:15:00.921Z,11.72
2022-09-28T17:17:31.545Z,11.69
2022-09-28T17:19:59.564Z,11.65
2022-09-28T17:22:27.459Z,11.63
2022-09-28T17:24:55.360Z,11.62
2022-09-28T17:27:23.155Z,11.58
2022-09-28T17:29:51.416Z,11.58
2022-09-28T17:32:20.844Z,11.58
2022-09-28T17:35:00.884Z,11.54
2022-09-28T17:37:36.245Z,11.51
2022-09-28T17:40:08.500Z,11.51
2022-09-28T17:42:36.269Z,11.47
2022-09-28T17:45:04.163Z,11.49
2022-09-28T17:47:34.437Z,11.48
2022-09-28T17:50:02.470Z,11.46
2022-09-28T17:52:30.209Z,11.46
2022-09-28T17:54:57.984Z,11.46
2022-09-28T17:57:25.852Z,11.45
2022-09-28T17:59:53.854Z,11.45
2022-09-28T18:02:21.642Z,11.45
2022-09-28T18:04:52.463Z,11.47
2022-09-28T18:07:23.396Z,11.46
2022-09-28T18:09:57.835Z,11.47
2022-09-28T18:12:26.096Z,11.42
2022-09-28T18:14:54.365Z,11.43
2022-09-28T18:17:22.273Z,11.44
2022-09-28T18:19:51.534Z,11.43
2022-09-28T18:22:19.513Z,11.41
2022-09-28T18:24:49.709Z,11.40
2022-09-28T18:27:17.664Z,11.37
2022-09-28T18:29:45.709Z,11.36
2022-09-28T18:32:13.577Z,11.33
2022-09-28T18:34:41.715Z,11.33
2022-09-28T18:37:11.076Z,11.32
2022-09-28T18:39:38.892Z,11.27
2022-09-28T18:42:07.817Z,11.26
2022-09-28T18:44:37.890Z,11.23
2022-09-28T18:47:06.141Z,11.22
2022-09-28T18:49:34.456Z,11.19
2022-09-28T18:52:03.030Z,11.19
2022-09-28T18:54:33.687Z,11.17
2022-09-28T18:57:01.548Z,11.15
2022-09-28T18:59:29.801Z,11.14
2022-09-28T19:01:57.841Z,11.12
2022-09-28T19:04:25.814Z,11.11
2022-09-28T19:06:54.400Z,11.09
2022-09-28T19:09:26.764Z,11.08
2022-09-28T19:11:56.036Z,11.05
2022-09-28T19:14:23.822Z,11.03
2022-09-28T19:16:51.729Z,10.99
2022-09-28T19:19:21.263Z,10.98
2022-09-28T19:21:49.421Z,10.93
2022-09-28T19:24:19.600Z,10.92
2022-09-28T19:26:47.855Z,10.88
2022-09-28T19:29:17.456Z,10.85
2022-09-28T19:31:46.007Z,10.80
2022-09-28T19:34:14.561Z,10.77
2022-09-28T19:36:42.809Z,10.75
2022-09-28T19:39:15.094Z,10.74
2022-09-28T19:41:49.216Z,10.70
2022-09-28T19:44:24.460Z,10.67
2022-09-28T19:46:54.604Z,10.65
2022-09-28T19:49:23.758Z,10.65
2022-09-28T19:52:12.033Z,10.60
2022-09-28T19:54:43.724Z,10.58
2022-09-28T19:57:12.584Z,10.55
2022-09-28T19:59:42.086Z,10.55
2022-09-28T20:02:11.490Z,10.55
2022-09-28T20:04:39.437Z,10.52
2022-09-28T20:07:07.369Z,10.50
2022-09-28T20:09:35.167Z,10.50
2022-09-28T20:12:03.154Z,10.50
2022-09-28T20:14:35.257Z,10.49
2022-09-28T20:17:07.451Z,10.49
2022-09-28T20:19:35.366Z,10.49
2022-09-28T20:22:03.532Z,10.48
2022-09-28T20:24:31.719Z,10.49
2022-09-28T20:27:01.150Z,10.48
2022-09-28T20:29:29.210Z,10.47
2022-09-28T20:31:57.715Z,10.49
2022-09-28T20:34:26.904Z,10.50
2022-09-28T20:36:54.741Z,10.48
2022-09-28T20:39:22.497Z,10.48
2022-09-28T20:41:50.297Z,10.46
2022-09-28T20:44:18.217Z,10.45
2022-09-28T20:46:46.246Z,10.44
2022-09-28T20:49:14.104Z,10.42
2022-09-28T20:51:45.870Z,10.42
2022-09-28T20:54:13.743Z,10.39
2022-09-28T20:56:41.478Z,10.39
2022-09-28T20:59:12.213Z,10.40
2022-09-28T21:01:41.376Z,10.37
2022-09-28T21:04:10.948Z,10.37
2022-09-28T21:06:41.930Z,10.36
2022-09-28T21:09:12.678Z,10.32
2022-09-28T21:11:41.651Z,10.31
2022-09-28T21:14:10.950Z,10.27
2022-09-28T21:16:39.253Z,10.27
2022-09-28T21:19:07.340Z,10.24
2022-09-28T21:21:35.581Z,10.23
2022-09-28T21:24:03.467Z,10.20
2022-09-28T21:26:33.193Z,10.20
2022-09-28T21:29:02.645Z,10.16
2022-09-28T21:31:32.704Z,10.14
2022-09-28T21:34:00.845Z,10.13
2022-09-28T21:36:28.663Z,10.10
2022-09-28T21:38:56.515Z,10.08
2022-09-28T21:41:24.758Z,10.08
2022-09-28T21:43:53.902Z,10.07
2022-09-28T21:46:21.838Z,10.03
2022-09-28T21:48:53.653Z,10.02
2022-09-28T21:51:21.996Z,10.01
2022-09-28T21:53:52.437Z,9.98
2022-09-28T21:56:20.236Z,9.97
2022-09-28T21:58:48.209Z,9.96
2022-09-28T22:01:19.646Z,9.94
2022-09-28T22:03:49.386Z,9.91
2022-09-28T22:06:18.842Z,9.90
2022-09-28T22:08:47.460Z,9.89
2022-09-28T22:11:17.885Z,9.87
2022-09-28T22:13:47.577Z,9.85
2022-09-28T22:16:18.559Z,9.85
2022-09-28T22:18:49.960Z,9.83
2022-09-28T22:21:20.015Z,9.83
2022-09-28T22:23:48.411Z,9.80
2022-09-28T22:26:19.037Z,9.77
2022-09-28T22:28:49.409Z,9.77
2022-09-28T22:31:20.323Z,9.75
2022-09-28T22:33:48.298Z,9.72
2022-09-28T22:36:17.033Z,9.71
2022-09-28T22:38:45.735Z,9.68
2022-09-28T22:41:15.837Z,9.67
2022-09-28T22:43:44.125Z,9.66
2022-09-28T22:46:13.525Z,9.64
2022-09-28T22:48:43.292Z,9.63
2022-09-28T22:51:11.081Z,9.61
2022-09-28T22:53:38.925Z,9.59
2022-09-28T22:56:07.646Z,9.59
2022-09-28T22:58:36.311Z,9.57
2022-09-28T23:01:08.549Z,9.59
2022-09-28T23:03:36.942Z,9.53
2022-09-28T23:06:06.835Z,9.56
2022-09-28T23:08:35.163Z,9.54
2022-09-28T23:11:03.487Z,9.55
2022-09-28T23:13:31.399Z,9.55
2022-09-28T23:16:01.649Z,9.56
2022-09-28T23:18:31.344Z,9.56
2022-09-28T23:21:00.920Z,9.55
2022-09-28T23:23:30.837Z,9.56
2022-09-28T23:25:58.818Z,9.55
2022-09-28T23:28:28.028Z,9.57
2022-09-28T23:30:55.841Z,9.56
2022-09-28T23:33:23.690Z,9.57
2022-09-28T23:35:51.685Z,9.56
2022-09-28T23:38:19.471Z,9.56
2022-09-28T23:40:49.005Z,9.58
2022-09-28T23:43:16.817Z,9.56
2022-09-28T23:45:45.524Z,9.57
2022-09-28T23:48:14.887Z,9.58
2022-09-28T23:50:43.085Z,9.57
2022-09-28T23:53:10.922Z,9.58
2022-09-28T23:55:38.761Z,9.58
2022-09-28T23:58:07.886Z,9.58
